International Virtual Aviation Organisation

Russian Federation and Kazakhstan MCD

 

Карточка аэропорта UHMA

Внимание!
Информация на этой странице в стадии наполнения.
Если вы не увидели какой-то информации, или заметили неточность - пожалуйста сообщите нам!
Спасибо!
Команда RU-STAFF
Название аэропортаУгольный
Название аэропорта (англ.)Ugolny
Превышение194 ft. (59.1 m.)
Координаты64°44.1', 177°44.28'
Высота перехода1600m
Эшелон переходаQFE>=755mm:FL070; QFE<755=>728:FL080; QFE<728:FL090
Коды ответчика6501-6537
Зона ОрВДМагадан РПИ (UHMM)
Данные METARUHMA 270330Z 09008MPS 9999 DRSN VCSH FEW013 SCT022CB BKN030 M03/M06 Q0986 R01/452049 TEMPO 0400 +SHSN RMK TDZ R01/09008G11MPS END R01/09011G13MPS QFE736/0981
Проноз погоды (TAF)UHMA 270139Z 2703/2803 08008G13MPS 5000 BR DRSN SCT008 BKN020 TEMPO 2703/2712 14003G08MPS 0400 +SHSN FZFG VV002 BECMG 2712/2715 35006G11MPS TEMPO 2715/2721 29007G12MPS 0500 -SHSN FZFG VV002
NOTAMshow/hide NOTAM
AWOS   TABLE

Информация о ВПП


Диспетчерские позиции

Позывной Наименование органа УВД Частота
UHMA_APPАнадырь-Подход124.0
UHMA_TWRАнадырь-Старт124.0



Спутниковое изображение